sensor_id;sensor_type;location;lat;lon;timestamp;temperature;humidity
25154;DHT22;47555;51.038;6.280;2023-04-03T00:00:32;1.60;94.70
25154;DHT22;47555;51.038;6.280;2023-04-03T00:02:58;1.70;94.80
25154;DHT22;47555;51.038;6.280;2023-04-03T00:05:23;1.70;94.90
25154;DHT22;47555;51.038;6.280;2023-04-03T00:07:49;1.70;94.80
25154;DHT22;47555;51.038;6.280;2023-04-03T00:10:15;1.80;94.30
25154;DHT22;47555;51.038;6.280;2023-04-03T00:12:41;1.80;93.80
25154;DHT22;47555;51.038;6.280;2023-04-03T00:15:07;1.80;93.40
25154;DHT22;47555;51.038;6.280;2023-04-03T00:17:34;1.90;93.40
25154;DHT22;47555;51.038;6.280;2023-04-03T00:20:00;1.90;93.50
25154;DHT22;47555;51.038;6.280;2023-04-03T00:22:26;1.90;92.70
25154;DHT22;47555;51.038;6.280;2023-04-03T00:24:54;1.90;92.20
25154;DHT22;47555;51.038;6.280;2023-04-03T00:27:20;1.90;92.70
25154;DHT22;47555;51.038;6.280;2023-04-03T00:29:45;2.00;92.00
25154;DHT22;47555;51.038;6.280;2023-04-03T00:32:11;1.90;91.90
25154;DHT22;47555;51.038;6.280;2023-04-03T00:34:36;1.90;91.80
25154;DHT22;47555;51.038;6.280;2023-04-03T00:37:02;1.90;91.50
25154;DHT22;47555;51.038;6.280;2023-04-03T00:39:27;1.90;91.60
25154;DHT22;47555;51.038;6.280;2023-04-03T00:41:53;1.90;91.60
25154;DHT22;47555;51.038;6.280;2023-04-03T00:46:53;1.80;91.60
25154;DHT22;47555;51.038;6.280;2023-04-03T00:49:19;1.80;91.50
25154;DHT22;47555;51.038;6.280;2023-04-03T00:51:45;1.80;91.70
25154;DHT22;47555;51.038;6.280;2023-04-03T00:54:11;1.80;91.60
25154;DHT22;47555;51.038;6.280;2023-04-03T00:56:38;1.80;91.60
25154;DHT22;47555;51.038;6.280;2023-04-03T00:59:27;1.80;91.50
25154;DHT22;47555;51.038;6.280;2023-04-03T01:01:56;1.80;91.70
25154;DHT22;47555;51.038;6.280;2023-04-03T01:04:30;1.80;91.60
25154;DHT22;47555;51.038;6.280;2023-04-03T01:06:59;1.80;91.60
25154;DHT22;47555;51.038;6.280;2023-04-03T01:09:26;1.80;91.30
25154;DHT22;47555;51.038;6.280;2023-04-03T01:11:53;1.80;91.40
25154;DHT22;47555;51.038;6.280;2023-04-03T01:14:19;1.80;91.40
25154;DHT22;47555;51.038;6.280;2023-04-03T01:16:54;1.80;91.50
25154;DHT22;47555;51.038;6.280;2023-04-03T01:19:22;1.80;91.30
25154;DHT22;47555;51.038;6.280;2023-04-03T01:22:19;1.80;91.10
25154;DHT22;47555;51.038;6.280;2023-04-03T01:24:48;1.80;91.00
25154;DHT22;47555;51.038;6.280;2023-04-03T01:27:14;1.80;91.10
25154;DHT22;47555;51.038;6.280;2023-04-03T01:29:41;1.70;91.20
25154;DHT22;47555;51.038;6.280;2023-04-03T01:32:08;1.80;91.30
25154;DHT22;47555;51.038;6.280;2023-04-03T01:34:34;1.70;91.40
25154;DHT22;47555;51.038;6.280;2023-04-03T01:36:59;1.60;91.40
25154;DHT22;47555;51.038;6.280;2023-04-03T01:39:25;1.60;91.30
25154;DHT22;47555;51.038;6.280;2023-04-03T01:41:51;1.60;91.30
25154;DHT22;47555;51.038;6.280;2023-04-03T01:44:16;1.60;91.60
25154;DHT22;47555;51.038;6.280;2023-04-03T01:46:42;1.60;91.60
25154;DHT22;47555;51.038;6.280;2023-04-03T01:49:08;1.60;91.80
25154;DHT22;47555;51.038;6.280;2023-04-03T01:51:33;1.50;92.30
25154;DHT22;47555;51.038;6.280;2023-04-03T01:53:59;1.50;92.60
25154;DHT22;47555;51.038;6.280;2023-04-03T01:56:25;1.50;93.50
25154;DHT22;47555;51.038;6.280;2023-04-03T01:58:50;1.50;93.10
25154;DHT22;47555;51.038;6.280;2023-04-03T02:01:16;1.40;93.20
25154;DHT22;47555;51.038;6.280;2023-04-03T02:03:41;1.50;94.00
25154;DHT22;47555;51.038;6.280;2023-04-03T02:06:07;1.40;94.00
25154;DHT22;47555;51.038;6.280;2023-04-03T02:08:32;1.50;94.70
25154;DHT22;47555;51.038;6.280;2023-04-03T02:10:58;1.50;94.60
25154;DHT22;47555;51.038;6.280;2023-04-03T02:13:24;1.60;94.50
25154;DHT22;47555;51.038;6.280;2023-04-03T02:15:49;1.60;94.10
25154;DHT22;47555;51.038;6.280;2023-04-03T02:18:15;1.70;94.10
25154;DHT22;47555;51.038;6.280;2023-04-03T02:20:41;1.70;93.70
25154;DHT22;47555;51.038;6.280;2023-04-03T02:23:07;1.80;93.60
25154;DHT22;47555;51.038;6.280;2023-04-03T02:25:33;1.80;93.40
25154;DHT22;47555;51.038;6.280;2023-04-03T02:27:58;1.90;93.40
25154;DHT22;47555;51.038;6.280;2023-04-03T02:30:24;1.90;93.20
25154;DHT22;47555;51.038;6.280;2023-04-03T02:32:50;2.00;92.90
25154;DHT22;47555;51.038;6.280;2023-04-03T02:35:16;1.90;93.10
25154;DHT22;47555;51.038;6.280;2023-04-03T02:37:41;1.90;92.80
25154;DHT22;47555;51.038;6.280;2023-04-03T02:40:08;1.90;92.90
25154;DHT22;47555;51.038;6.280;2023-04-03T02:42:34;1.90;93.40
25154;DHT22;47555;51.038;6.280;2023-04-03T02:45:00;1.80;93.00
25154;DHT22;47555;51.038;6.280;2023-04-03T02:47:26;1.80;93.10
25154;DHT22;47555;51.038;6.280;2023-04-03T02:49:52;1.70;93.40
25154;DHT22;47555;51.038;6.280;2023-04-03T02:52:18;1.60;93.40
25154;DHT22;47555;51.038;6.280;2023-04-03T02:54:44;1.60;93.50
25154;DHT22;47555;51.038;6.280;2023-04-03T02:57:10;1.50;94.10
25154;DHT22;47555;51.038;6.280;2023-04-03T02:59:38;1.60;94.20
25154;DHT22;47555;51.038;6.280;2023-04-03T03:02:07;1.50;94.00
25154;DHT22;47555;51.038;6.280;2023-04-03T03:04:34;1.50;94.10
25154;DHT22;47555;51.038;6.280;2023-04-03T03:07:00;1.40;94.40
25154;DHT22;47555;51.038;6.280;2023-04-03T03:09:26;1.40;94.40
25154;DHT22;47555;51.038;6.280;2023-04-03T03:11:52;1.40;94.60
25154;DHT22;47555;51.038;6.280;2023-04-03T03:14:18;1.40;94.90
25154;DHT22;47555;51.038;6.280;2023-04-03T03:16:43;1.40;95.40
25154;DHT22;47555;51.038;6.280;2023-04-03T03:19:09;1.40;95.90
25154;DHT22;47555;51.038;6.280;2023-04-03T03:21:35;1.40;95.90
25154;DHT22;47555;51.038;6.280;2023-04-03T03:24:01;1.40;95.90
25154;DHT22;47555;51.038;6.280;2023-04-03T03:26:27;1.30;95.90
25154;DHT22;47555;51.038;6.280;2023-04-03T03:28:52;1.30;95.90
25154;DHT22;47555;51.038;6.280;2023-04-03T03:31:18;1.30;96.00
25154;DHT22;47555;51.038;6.280;2023-04-03T03:33:44;1.40;96.30
25154;DHT22;47555;51.038;6.280;2023-04-03T03:36:09;1.40;96.40
25154;DHT22;47555;51.038;6.280;2023-04-03T03:38:36;1.40;96.50
25154;DHT22;47555;51.038;6.280;2023-04-03T03:41:02;1.40;96.70
25154;DHT22;47555;51.038;6.280;2023-04-03T03:43:28;1.40;97.10
25154;DHT22;47555;51.038;6.280;2023-04-03T03:45:54;1.40;96.80
25154;DHT22;47555;51.038;6.280;2023-04-03T03:48:20;1.40;96.80
25154;DHT22;47555;51.038;6.280;2023-04-03T03:50:46;1.40;97.20
25154;DHT22;47555;51.038;6.280;2023-04-03T03:53:12;1.30;97.20
25154;DHT22;47555;51.038;6.280;2023-04-03T03:55:37;1.40;98.00
25154;DHT22;47555;51.038;6.280;2023-04-03T03:58:03;1.40;97.90
25154;DHT22;47555;51.038;6.280;2023-04-03T04:00:29;1.40;97.60
25154;DHT22;47555;51.038;6.280;2023-04-03T04:02:55;1.40;97.50
25154;DHT22;47555;51.038;6.280;2023-04-03T04:05:21;1.50;97.50
25154;DHT22;47555;51.038;6.280;2023-04-03T04:07:47;1.50;97.30
25154;DHT22;47555;51.038;6.280;2023-04-03T04:10:12;1.50;97.50
25154;DHT22;47555;51.038;6.280;2023-04-03T04:12:39;1.50;97.30
25154;DHT22;47555;51.038;6.280;2023-04-03T04:15:05;1.40;97.60
25154;DHT22;47555;51.038;6.280;2023-04-03T04:17:31;1.40;97.80
25154;DHT22;47555;51.038;6.280;2023-04-03T04:19:56;1.40;97.70
25154;DHT22;47555;51.038;6.280;2023-04-03T04:22:22;1.40;97.30
25154;DHT22;47555;51.038;6.280;2023-04-03T04:24:48;1.30;97.50
25154;DHT22;47555;51.038;6.280;2023-04-03T04:27:13;1.40;97.70
25154;DHT22;47555;51.038;6.280;2023-04-03T04:29:41;1.30;97.70
25154;DHT22;47555;51.038;6.280;2023-04-03T04:32:06;1.30;97.30
25154;DHT22;47555;51.038;6.280;2023-04-03T04:34:32;1.30;97.50
25154;DHT22;47555;51.038;6.280;2023-04-03T04:36:58;1.30;97.40
25154;DHT22;47555;51.038;6.280;2023-04-03T04:39:23;1.30;97.30
25154;DHT22;47555;51.038;6.280;2023-04-03T04:41:49;1.30;97.50
25154;DHT22;47555;51.038;6.280;2023-04-03T04:44:15;1.30;97.40
25154;DHT22;47555;51.038;6.280;2023-04-03T04:46:41;1.20;97.50
25154;DHT22;47555;51.038;6.280;2023-04-03T04:49:06;1.20;97.70
25154;DHT22;47555;51.038;6.280;2023-04-03T04:51:32;1.20;97.80
25154;DHT22;47555;51.038;6.280;2023-04-03T04:53:58;1.10;98.00
25154;DHT22;47555;51.038;6.280;2023-04-03T04:56:23;1.20;98.10
25154;DHT22;47555;51.038;6.280;2023-04-03T04:58:49;1.20;98.10
25154;DHT22;47555;51.038;6.280;2023-04-03T05:01:14;1.10;98.10
25154;DHT22;47555;51.038;6.280;2023-04-03T05:03:40;1.10;98.30
25154;DHT22;47555;51.038;6.280;2023-04-03T05:06:06;1.10;98.20
25154;DHT22;47555;51.038;6.280;2023-04-03T05:08:31;1.10;98.30
25154;DHT22;47555;51.038;6.280;2023-04-03T05:10:57;1.10;98.00
25154;DHT22;47555;51.038;6.280;2023-04-03T05:13:23;1.20;98.00
25154;DHT22;47555;51.038;6.280;2023-04-03T05:15:48;1.10;98.10
25154;DHT22;47555;51.038;6.280;2023-04-03T05:18:14;1.10;98.30
25154;DHT22;47555;51.038;6.280;2023-04-03T05:20:40;1.10;98.70
25154;DHT22;47555;51.038;6.280;2023-04-03T05:23:05;1.10;98.20
25154;DHT22;47555;51.038;6.280;2023-04-03T05:25:31;1.10;98.20
25154;DHT22;47555;51.038;6.280;2023-04-03T05:27:57;1.10;98.20
25154;DHT22;47555;51.038;6.280;2023-04-03T05:30:22;1.10;98.00
25154;DHT22;47555;51.038;6.280;2023-04-03T05:32:48;1.20;97.50
25154;DHT22;47555;51.038;6.280;2023-04-03T05:35:14;1.20;97.40
25154;DHT22;47555;51.038;6.280;2023-04-03T05:37:39;1.30;97.20
25154;DHT22;47555;51.038;6.280;2023-04-03T05:40:06;1.30;97.00
25154;DHT22;47555;51.038;6.280;2023-04-03T05:42:32;1.30;96.70
25154;DHT22;47555;51.038;6.280;2023-04-03T05:44:58;1.40;96.30
25154;DHT22;47555;51.038;6.280;2023-04-03T05:47:24;1.40;96.00
25154;DHT22;47555;51.038;6.280;2023-04-03T05:49:49;1.40;95.90
25154;DHT22;47555;51.038;6.280;2023-04-03T05:52:29;1.50;95.50
25154;DHT22;47555;51.038;6.280;2023-04-03T05:54:56;1.50;95.30
25154;DHT22;47555;51.038;6.280;2023-04-03T05:57:22;1.60;95.20
25154;DHT22;47555;51.038;6.280;2023-04-03T05:59:48;1.60;94.90
25154;DHT22;47555;51.038;6.280;2023-04-03T06:02:17;1.60;94.90
25154;DHT22;47555;51.038;6.280;2023-04-03T06:04:43;1.70;94.90
25154;DHT22;47555;51.038;6.280;2023-04-03T06:07:12;1.80;94.20
25154;DHT22;47555;51.038;6.280;2023-04-03T06:09:38;1.80;93.80
25154;DHT22;47555;51.038;6.280;2023-04-03T06:12:04;2.10;93.30
25154;DHT22;47555;51.038;6.280;2023-04-03T06:14:29;2.00;93.30
25154;DHT22;47555;51.038;6.280;2023-04-03T06:16:55;2.10;93.00
25154;DHT22;47555;51.038;6.280;2023-04-03T06:19:21;2.10;92.70
25154;DHT22;47555;51.038;6.280;2023-04-03T06:21:46;2.20;92.90
25154;DHT22;47555;51.038;6.280;2023-04-03T06:24:16;2.30;92.10
25154;DHT22;47555;51.038;6.280;2023-04-03T06:26:43;2.40;91.70
25154;DHT22;47555;51.038;6.280;2023-04-03T06:29:09;2.50;91.30
25154;DHT22;47555;51.038;6.280;2023-04-03T06:31:34;2.60;90.70
25154;DHT22;47555;51.038;6.280;2023-04-03T06:34:02;2.70;89.60
25154;DHT22;47555;51.038;6.280;2023-04-03T06:36:28;2.90;88.90
25154;DHT22;47555;51.038;6.280;2023-04-03T06:38:54;3.00;89.40
25154;DHT22;47555;51.038;6.280;2023-04-03T06:41:19;3.10;88.40
25154;DHT22;47555;51.038;6.280;2023-04-03T06:43:46;3.30;86.30
25154;DHT22;47555;51.038;6.280;2023-04-03T06:46:22;3.50;86.30
25154;DHT22;47555;51.038;6.280;2023-04-03T06:48:48;3.50;85.10
25154;DHT22;47555;51.038;6.280;2023-04-03T06:51:20;3.70;84.00
25154;DHT22;47555;51.038;6.280;2023-04-03T06:53:47;3.80;82.80
25154;DHT22;47555;51.038;6.280;2023-04-03T06:56:13;3.90;81.40
25154;DHT22;47555;51.038;6.280;2023-04-03T06:58:39;4.10;81.50
25154;DHT22;47555;51.038;6.280;2023-04-03T07:01:05;4.20;79.10
25154;DHT22;47555;51.038;6.280;2023-04-03T07:03:31;4.40;79.20
25154;DHT22;47555;51.038;6.280;2023-04-03T07:05:57;4.60;78.10
25154;DHT22;47555;51.038;6.280;2023-04-03T07:08:22;4.60;76.50
25154;DHT22;47555;51.038;6.280;2023-04-03T07:10:49;4.80;74.40
25154;DHT22;47555;51.038;6.280;2023-04-03T07:13:15;4.80;74.80
25154;DHT22;47555;51.038;6.280;2023-04-03T07:15:41;4.90;73.90
25154;DHT22;47555;51.038;6.280;2023-04-03T07:18:06;5.10;72.90
25154;DHT22;47555;51.038;6.280;2023-04-03T07:20:31;5.20;73.00
25154;DHT22;47555;51.038;6.280;2023-04-03T07:22:57;5.30;70.30
25154;DHT22;47555;51.038;6.280;2023-04-03T07:25:23;5.30;69.90
25154;DHT22;47555;51.038;6.280;2023-04-03T07:27:48;5.40;67.50
25154;DHT22;47555;51.038;6.280;2023-04-03T07:30:14;5.50;69.60
25154;DHT22;47555;51.038;6.280;2023-04-03T07:32:40;5.60;70.40
25154;DHT22;47555;51.038;6.280;2023-04-03T07:35:06;5.80;67.30
25154;DHT22;47555;51.038;6.280;2023-04-03T07:37:32;5.90;68.80
25154;DHT22;47555;51.038;6.280;2023-04-03T07:39:57;6.00;67.90
25154;DHT22;47555;51.038;6.280;2023-04-03T07:42:24;6.20;65.30
25154;DHT22;47555;51.038;6.280;2023-04-03T07:44:52;6.30;63.80
25154;DHT22;47555;51.038;6.280;2023-04-03T07:47:17;6.50;63.60
25154;DHT22;47555;51.038;6.280;2023-04-03T07:49:43;6.70;63.30
25154;DHT22;47555;51.038;6.280;2023-04-03T07:52:09;6.80;57.40
25154;DHT22;47555;51.038;6.280;2023-04-03T07:54:35;6.80;58.40
25154;DHT22;47555;51.038;6.280;2023-04-03T07:57:00;7.00;57.10
25154;DHT22;47555;51.038;6.280;2023-04-03T07:59:26;7.10;59.90
25154;DHT22;47555;51.038;6.280;2023-04-03T08:01:52;7.30;55.70
25154;DHT22;47555;51.038;6.280;2023-04-03T08:04:18;7.40;53.30
25154;DHT22;47555;51.038;6.280;2023-04-03T08:06:43;7.50;53.20
25154;DHT22;47555;51.038;6.280;2023-04-03T08:09:09;7.60;50.60
25154;DHT22;47555;51.038;6.280;2023-04-03T08:11:34;7.70;50.60
25154;DHT22;47555;51.038;6.280;2023-04-03T08:14:01;7.70;47.40
25154;DHT22;47555;51.038;6.280;2023-04-03T08:16:27;7.80;48.30
25154;DHT22;47555;51.038;6.280;2023-04-03T08:18:54;7.90;46.60
25154;DHT22;47555;51.038;6.280;2023-04-03T08:21:21;8.00;45.00
25154;DHT22;47555;51.038;6.280;2023-04-03T08:23:49;8.00;44.40
25154;DHT22;47555;51.038;6.280;2023-04-03T08:26:18;8.00;43.40
25154;DHT22;47555;51.038;6.280;2023-04-03T08:28:44;8.00;42.20
25154;DHT22;47555;51.038;6.280;2023-04-03T08:31:13;7.90;43.20
25154;DHT22;47555;51.038;6.280;2023-04-03T08:33:39;7.80;43.10
25154;DHT22;47555;51.038;6.280;2023-04-03T08:36:07;8.00;43.50
25154;DHT22;47555;51.038;6.280;2023-04-03T08:38:33;8.10;43.40
25154;DHT22;47555;51.038;6.280;2023-04-03T08:41:11;8.20;40.70
25154;DHT22;47555;51.038;6.280;2023-04-03T08:51:54;9.00;39.70
25154;DHT22;47555;51.038;6.280;2023-04-03T08:54:50;9.10;37.30
25154;DHT22;47555;51.038;6.280;2023-04-03T08:57:18;9.20;38.60
25154;DHT22;47555;51.038;6.280;2023-04-03T08:59:45;9.30;37.10
25154;DHT22;47555;51.038;6.280;2023-04-03T09:02:31;9.30;33.10
25154;DHT22;47555;51.038;6.280;2023-04-03T09:04:59;9.30;33.10
25154;DHT22;47555;51.038;6.280;2023-04-03T09:07:54;9.40;30.70
25154;DHT22;47555;51.038;6.280;2023-04-03T09:10:28;9.30;30.50
25154;DHT22;47555;51.038;6.280;2023-04-03T09:13:08;9.30;30.80
25154;DHT22;47555;51.038;6.280;2023-04-03T09:15:37;9.30;30.80
25154;DHT22;47555;51.038;6.280;2023-04-03T09:18:09;9.30;31.20
25154;DHT22;47555;51.038;6.280;2023-04-03T09:23:34;9.40;30.10
25154;DHT22;47555;51.038;6.280;2023-04-03T09:26:09;9.30;27.40
25154;DHT22;47555;51.038;6.280;2023-04-03T09:28:40;9.10;29.30
25154;DHT22;47555;51.038;6.280;2023-04-03T09:31:38;9.20;29.40
25154;DHT22;47555;51.038;6.280;2023-04-03T09:36:48;9.30;31.40
25154;DHT22;47555;51.038;6.280;2023-04-03T09:39:19;9.40;28.30
25154;DHT22;47555;51.038;6.280;2023-04-03T09:42:00;9.30;27.10
25154;DHT22;47555;51.038;6.280;2023-04-03T09:44:35;9.50;30.10
25154;DHT22;47555;51.038;6.280;2023-04-03T09:49:49;9.90;25.10
25154;DHT22;47555;51.038;6.280;2023-04-03T09:52:25;9.70;22.80
25154;DHT22;47555;51.038;6.280;2023-04-03T09:54:51;9.70;22.40
25154;DHT22;47555;51.038;6.280;2023-04-03T09:57:17;9.70;23.20
25154;DHT22;47555;51.038;6.280;2023-04-03T09:59:59;9.80;21.00
25154;DHT22;47555;51.038;6.280;2023-04-03T10:02:30;9.80;21.40
25154;DHT22;47555;51.038;6.280;2023-04-03T10:04:57;9.60;19.50
25154;DHT22;47555;51.038;6.280;2023-04-03T10:07:35;9.50;21.20
25154;DHT22;47555;51.038;6.280;2023-04-03T10:12:42;9.80;21.50
25154;DHT22;47555;51.038;6.280;2023-04-03T10:15:12;9.80;22.00
25154;DHT22;47555;51.038;6.280;2023-04-03T10:17:57;9.90;21.40
25154;DHT22;47555;51.038;6.280;2023-04-03T10:20:39;9.90;22.40
25154;DHT22;47555;51.038;6.280;2023-04-03T10:23:24;10.00;21.30
25154;DHT22;47555;51.038;6.280;2023-04-03T10:26:14;10.10;23.00
25154;DHT22;47555;51.038;6.280;2023-04-03T10:32:08;10.30;23.00
25154;DHT22;47555;51.038;6.280;2023-04-03T10:34:40;10.30;22.50
25154;DHT22;47555;51.038;6.280;2023-04-03T10:37:30;10.40;22.60
25154;DHT22;47555;51.038;6.280;2023-04-03T10:40:34;10.50;22.20
25154;DHT22;47555;51.038;6.280;2023-04-03T10:43:21;10.50;21.40
25154;DHT22;47555;51.038;6.280;2023-04-03T10:48:28;10.20;21.90
25154;DHT22;47555;51.038;6.280;2023-04-03T10:54:00;10.50;21.90
25154;DHT22;47555;51.038;6.280;2023-04-03T10:56:48;10.60;21.90
25154;DHT22;47555;51.038;6.280;2023-04-03T10:59:25;10.80;22.70
25154;DHT22;47555;51.038;6.280;2023-04-03T11:02:01;10.80;19.90
25154;DHT22;47555;51.038;6.280;2023-04-03T11:04:33;10.60;19.30
25154;DHT22;47555;51.038;6.280;2023-04-03T11:07:21;10.70;20.00
25154;DHT22;47555;51.038;6.280;2023-04-03T11:09:50;10.60;20.80
25154;DHT22;47555;51.038;6.280;2023-04-03T11:12:36;10.70;21.30
25154;DHT22;47555;51.038;6.280;2023-04-03T11:15:04;10.80;20.80
25154;DHT22;47555;51.038;6.280;2023-04-03T11:17:39;10.80;19.70
25154;DHT22;47555;51.038;6.280;2023-04-03T11:20:18;10.70;21.90
25154;DHT22;47555;51.038;6.280;2023-04-03T11:22:52;10.50;20.50
25154;DHT22;47555;51.038;6.280;2023-04-03T11:25:23;10.40;21.80
25154;DHT22;47555;51.038;6.280;2023-04-03T11:28:02;10.50;22.40
25154;DHT22;47555;51.038;6.280;2023-04-03T11:30:51;10.70;23.80
25154;DHT22;47555;51.038;6.280;2023-04-03T11:33:32;11.10;22.40
25154;DHT22;47555;51.038;6.280;2023-04-03T11:38:38;11.50;23.80
25154;DHT22;47555;51.038;6.280;2023-04-03T11:41:08;11.50;22.40
25154;DHT22;47555;51.038;6.280;2023-04-03T11:43:59;11.50;21.30
25154;DHT22;47555;51.038;6.280;2023-04-03T11:46:50;11.30;20.80
25154;DHT22;47555;51.038;6.280;2023-04-03T12:01:16;11.40;21.20
25154;DHT22;47555;51.038;6.280;2023-04-03T12:19:27;10.80;19.70
25154;DHT22;47555;51.038;6.280;2023-04-03T12:24:31;10.90;18.80
25154;DHT22;47555;51.038;6.280;2023-04-03T12:32:20;11.40;19.70
25154;DHT22;47555;51.038;6.280;2023-04-03T12:48:26;11.60;18.60
25154;DHT22;47555;51.038;6.280;2023-04-03T12:50:52;11.60;19.40
25154;DHT22;47555;51.038;6.280;2023-04-03T12:53:19;11.60;19.70
25154;DHT22;47555;51.038;6.280;2023-04-03T12:55:51;11.70;18.80
25154;DHT22;47555;51.038;6.280;2023-04-03T12:58:24;11.60;17.50
25154;DHT22;47555;51.038;6.280;2023-04-03T13:01:11;11.60;17.60
25154;DHT22;47555;51.038;6.280;2023-04-03T13:03:40;11.50;18.40
25154;DHT22;47555;51.038;6.280;2023-04-03T13:06:16;11.60;19.30
25154;DHT22;47555;51.038;6.280;2023-04-03T13:08:54;11.70;18.40
25154;DHT22;47555;51.038;6.280;2023-04-03T13:11:26;11.80;17.70
25154;DHT22;47555;51.038;6.280;2023-04-03T13:14:00;11.80;17.10
25154;DHT22;47555;51.038;6.280;2023-04-03T13:16:27;11.80;17.70
25154;DHT22;47555;51.038;6.280;2023-04-03T13:18:54;11.80;16.80
25154;DHT22;47555;51.038;6.280;2023-04-03T13:21:28;11.70;18.80
25154;DHT22;47555;51.038;6.280;2023-04-03T13:23:58;11.90;19.10
25154;DHT22;47555;51.038;6.280;2023-04-03T13:26:28;11.90;18.70
25154;DHT22;47555;51.038;6.280;2023-04-03T13:28:56;12.00;19.50
25154;DHT22;47555;51.038;6.280;2023-04-03T13:31:26;12.10;17.60
25154;DHT22;47555;51.038;6.280;2023-04-03T13:36:24;12.00;17.60
25154;DHT22;47555;51.038;6.280;2023-04-03T13:39:06;12.10;18.20
25154;DHT22;47555;51.038;6.280;2023-04-03T13:41:37;12.20;18.10
25154;DHT22;47555;51.038;6.280;2023-04-03T13:46:52;12.30;16.00
25154;DHT22;47555;51.038;6.280;2023-04-03T13:49:20;12.00;16.30
25154;DHT22;47555;51.038;6.280;2023-04-03T13:51:46;11.80;16.70
25154;DHT22;47555;51.038;6.280;2023-04-03T13:54:31;11.70;18.20
25154;DHT22;47555;51.038;6.280;2023-04-03T13:56:59;11.70;17.30
25154;DHT22;47555;51.038;6.280;2023-04-03T13:59:30;11.70;18.00
25154;DHT22;47555;51.038;6.280;2023-04-03T14:04:31;11.90;15.90
25154;DHT22;47555;51.038;6.280;2023-04-03T14:06:57;11.90;16.50
25154;DHT22;47555;51.038;6.280;2023-04-03T14:09:25;12.00;18.10
25154;DHT22;47555;51.038;6.280;2023-04-03T14:11:55;12.10;18.60
25154;DHT22;47555;51.038;6.280;2023-04-03T14:14:26;12.10;17.30
25154;DHT22;47555;51.038;6.280;2023-04-03T14:16:54;12.10;18.80
25154;DHT22;47555;51.038;6.280;2023-04-03T14:19:32;12.20;17.70
25154;DHT22;47555;51.038;6.280;2023-04-03T14:22:00;12.10;17.60
25154;DHT22;47555;51.038;6.280;2023-04-03T14:24:25;12.00;17.40
25154;DHT22;47555;51.038;6.280;2023-04-03T14:26:53;11.80;16.60
25154;DHT22;47555;51.038;6.280;2023-04-03T14:29:21;11.80;18.10
25154;DHT22;47555;51.038;6.280;2023-04-03T14:31:48;11.90;18.30
25154;DHT22;47555;51.038;6.280;2023-04-03T14:34:14;12.00;18.30
25154;DHT22;47555;51.038;6.280;2023-04-03T14:36:43;12.00;17.30
25154;DHT22;47555;51.038;6.280;2023-04-03T14:39:15;12.10;17.80
25154;DHT22;47555;51.038;6.280;2023-04-03T14:41:42;12.10;18.40
25154;DHT22;47555;51.038;6.280;2023-04-03T14:44:08;12.00;17.10
25154;DHT22;47555;51.038;6.280;2023-04-03T14:46:37;11.90;17.80
25154;DHT22;47555;51.038;6.280;2023-04-03T14:49:08;11.80;17.70
25154;DHT22;47555;51.038;6.280;2023-04-03T14:51:37;11.70;17.80
25154;DHT22;47555;51.038;6.280;2023-04-03T14:54:03;11.60;18.80
25154;DHT22;47555;51.038;6.280;2023-04-03T14:56:29;11.70;19.60
25154;DHT22;47555;51.038;6.280;2023-04-03T14:58:59;11.80;18.30
25154;DHT22;47555;51.038;6.280;2023-04-03T15:01:27;11.70;18.30
25154;DHT22;47555;51.038;6.280;2023-04-03T15:03:52;11.60;18.70
25154;DHT22;47555;51.038;6.280;2023-04-03T15:06:18;11.60;19.00
25154;DHT22;47555;51.038;6.280;2023-04-03T15:08:46;11.50;19.40
25154;DHT22;47555;51.038;6.280;2023-04-03T15:11:13;11.40;19.60
25154;DHT22;47555;51.038;6.280;2023-04-03T15:13:40;11.40;20.40
25154;DHT22;47555;51.038;6.280;2023-04-03T15:16:25;11.40;20.50
25154;DHT22;47555;51.038;6.280;2023-04-03T15:18:52;11.40;19.80
25154;DHT22;47555;51.038;6.280;2023-04-03T15:21:17;11.30;20.40
25154;DHT22;47555;51.038;6.280;2023-04-03T15:23:43;11.30;19.80
25154;DHT22;47555;51.038;6.280;2023-04-03T15:26:08;11.20;21.30
25154;DHT22;47555;51.038;6.280;2023-04-03T15:28:37;11.20;19.70
25154;DHT22;47555;51.038;6.280;2023-04-03T15:31:03;11.10;20.10
25154;DHT22;47555;51.038;6.280;2023-04-03T15:33:30;11.10;20.40
25154;DHT22;47555;51.038;6.280;2023-04-03T15:35:55;11.10;20.60
25154;DHT22;47555;51.038;6.280;2023-04-03T15:38:21;11.10;19.70
25154;DHT22;47555;51.038;6.280;2023-04-03T15:40:47;11.00;19.70
25154;DHT22;47555;51.038;6.280;2023-04-03T15:43:13;11.00;20.30
25154;DHT22;47555;51.038;6.280;2023-04-03T15:45:40;11.10;20.90
25154;DHT22;47555;51.038;6.280;2023-04-03T15:48:05;11.00;21.10
25154;DHT22;47555;51.038;6.280;2023-04-03T15:50:32;11.00;20.30
25154;DHT22;47555;51.038;6.280;2023-04-03T15:52:58;10.90;20.80
25154;DHT22;47555;51.038;6.280;2023-04-03T15:55:25;10.80;21.00
25154;DHT22;47555;51.038;6.280;2023-04-03T15:57:52;10.80;21.80
25154;DHT22;47555;51.038;6.280;2023-04-03T16:00:18;10.80;20.60
25154;DHT22;47555;51.038;6.280;2023-04-03T16:02:45;10.70;21.40
25154;DHT22;47555;51.038;6.280;2023-04-03T16:05:12;10.70;20.30
25154;DHT22;47555;51.038;6.280;2023-04-03T16:07:41;10.60;21.40
25154;DHT22;47555;51.038;6.280;2023-04-03T16:10:08;10.60;21.20
25154;DHT22;47555;51.038;6.280;2023-04-03T16:12:34;10.50;21.50
25154;DHT22;47555;51.038;6.280;2023-04-03T16:15:00;10.40;21.90
25154;DHT22;47555;51.038;6.280;2023-04-03T16:17:26;10.30;21.70
25154;DHT22;47555;51.038;6.280;2023-04-03T16:19:53;10.20;21.90
25154;DHT22;47555;51.038;6.280;2023-04-03T16:22:19;10.10;21.40
25154;DHT22;47555;51.038;6.280;2023-04-03T16:24:45;10.10;23.00
25154;DHT22;47555;51.038;6.280;2023-04-03T16:27:10;10.00;22.90
25154;DHT22;47555;51.038;6.280;2023-04-03T16:29:36;10.00;23.70
25154;DHT22;47555;51.038;6.280;2023-04-03T16:32:02;10.00;23.70
25154;DHT22;47555;51.038;6.280;2023-04-03T16:34:27;9.90;23.80
25154;DHT22;47555;51.038;6.280;2023-04-03T16:36:55;9.90;24.60
25154;DHT22;47555;51.038;6.280;2023-04-03T16:39:21;9.80;23.70
25154;DHT22;47555;51.038;6.280;2023-04-03T16:41:46;9.70;23.60
25154;DHT22;47555;51.038;6.280;2023-04-03T16:44:12;9.70;23.80
25154;DHT22;47555;51.038;6.280;2023-04-03T16:46:37;9.60;24.30
25154;DHT22;47555;51.038;6.280;2023-04-03T16:49:03;9.50;24.60
25154;DHT22;47555;51.038;6.280;2023-04-03T16:51:29;9.30;24.70
25154;DHT22;47555;51.038;6.280;2023-04-03T16:53:55;9.30;25.60
25154;DHT22;47555;51.038;6.280;2023-04-03T16:56:21;9.20;25.00
25154;DHT22;47555;51.038;6.280;2023-04-03T16:58:47;9.20;25.50
25154;DHT22;47555;51.038;6.280;2023-04-03T17:01:15;9.10;24.70
25154;DHT22;47555;51.038;6.280;2023-04-03T17:03:40;9.00;25.50
25154;DHT22;47555;51.038;6.280;2023-04-03T17:06:06;8.90;25.30
25154;DHT22;47555;51.038;6.280;2023-04-03T17:08:32;8.80;25.60
25154;DHT22;47555;51.038;6.280;2023-04-03T17:10:57;8.80;25.70
25154;DHT22;47555;51.038;6.280;2023-04-03T17:13:23;8.70;25.40
25154;DHT22;47555;51.038;6.280;2023-04-03T17:15:48;8.60;26.10
25154;DHT22;47555;51.038;6.280;2023-04-03T17:18:14;8.50;26.40
25154;DHT22;47555;51.038;6.280;2023-04-03T17:20:40;8.40;26.70